createdAt,value
2022-10-04T00:00:32.879Z,8.388888888888971
2022-10-04T00:01:32.938Z,8.277777777777828
2022-10-04T00:02:32.921Z,8.277777777777828
2022-10-04T00:03:32.851Z,8.277777777777828
2022-10-04T00:04:32.850Z,8.277777777777828
2022-10-04T00:05:32.863Z,8.277777777777828
2022-10-04T00:06:32.871Z,8.222222222222285
2022-10-04T00:07:32.876Z,8.222222222222285
2022-10-04T00:08:32.851Z,8.222222222222285
2022-10-04T00:09:32.967Z,8.222222222222285
2022-10-04T00:10:32.873Z,8.222222222222285
2022-10-04T00:11:32.899Z,8.222222222222285
2022-10-04T00:12:32.956Z,8.222222222222285
2022-10-04T00:13:32.852Z,8.111111111111143
2022-10-04T00:14:32.865Z,8.111111111111143
2022-10-04T00:15:32.862Z,8.111111111111143
2022-10-04T00:16:33.007Z,8.111111111111143
2022-10-04T00:17:32.879Z,8.111111111111143
2022-10-04T00:18:32.903Z,8.111111111111143
2022-10-04T00:19:32.816Z,8.111111111111143
2022-10-04T00:20:33.077Z,8.000000000000057
2022-10-04T00:21:32.888Z,8.000000000000057
2022-10-04T00:22:32.949Z,8.000000000000057
2022-10-04T00:23:32.829Z,8.000000000000057
2022-10-04T00:24:32.968Z,8.000000000000057
2022-10-04T00:25:32.891Z,8.000000000000057
2022-10-04T00:26:32.856Z,8.000000000000057
2022-10-04T00:27:32.821Z,8.000000000000057
2022-10-04T00:28:32.906Z,7.888888888888914
2022-10-04T00:29:32.854Z,7.888888888888914
2022-10-04T00:30:32.859Z,7.888888888888914
2022-10-04T00:31:32.877Z,7.888888888888914
2022-10-04T00:32:32.893Z,7.888888888888914
2022-10-04T00:33:32.866Z,7.888888888888914
2022-10-04T00:34:32.856Z,7.888888888888914
2022-10-04T00:35:32.981Z,7.888888888888914
2022-10-04T00:36:32.875Z,7.888888888888914
2022-10-04T00:37:32.858Z,7.888888888888914
2022-10-04T00:38:32.859Z,7.888888888888914
2022-10-04T00:39:32.859Z,7.777777777777828
2022-10-04T00:40:32.866Z,7.777777777777828
2022-10-04T00:41:32.841Z,7.777777777777828
2022-10-04T00:42:32.933Z,7.777777777777828
2022-10-04T00:43:32.881Z,7.777777777777828
2022-10-04T00:44:32.857Z,7.777777777777828
2022-10-04T00:45:32.853Z,7.777777777777828
2022-10-04T00:46:32.896Z,7.777777777777828
2022-10-04T00:47:32.875Z,7.777777777777828
2022-10-04T00:48:32.873Z,7.777777777777828
2022-10-04T00:49:32.878Z,7.777777777777828
2022-10-04T00:50:32.843Z,7.777777777777828
2022-10-04T00:51:32.881Z,7.777777777777828
2022-10-04T00:52:32.836Z,7.777777777777828
2022-10-04T00:53:32.845Z,7.777777777777828
2022-10-04T00:54:32.825Z,7.777777777777828
2022-10-04T00:55:32.863Z,7.777777777777828
2022-10-04T00:56:32.860Z,7.777777777777828
2022-10-04T00:57:32.877Z,7.777777777777828
2022-10-04T00:58:32.851Z,7.7222222222222285
2022-10-04T00:59:32.867Z,7.7222222222222285
2022-10-04T01:00:32.853Z,7.7222222222222285
2022-10-04T01:01:32.960Z,7.7222222222222285
2022-10-04T01:02:33.061Z,7.7222222222222285
2022-10-04T01:03:32.888Z,7.7222222222222285
2022-10-04T01:04:32.945Z,7.7222222222222285
2022-10-04T01:05:32.880Z,7.7222222222222285
2022-10-04T01:06:32.866Z,7.7222222222222285
2022-10-04T01:07:32.885Z,7.7222222222222285
2022-10-04T01:08:32.861Z,7.7222222222222285
2022-10-04T01:09:32.852Z,7.611111111111143
2022-10-04T01:10:32.836Z,7.611111111111143
2022-10-04T01:11:32.879Z,7.611111111111143
2022-10-04T01:12:32.937Z,7.611111111111143
2022-10-04T01:13:32.865Z,7.611111111111143
2022-10-04T01:14:32.805Z,7.500000000000057
2022-10-04T01:15:32.906Z,7.500000000000057
2022-10-04T01:16:32.838Z,7.500000000000057
2022-10-04T01:17:32.899Z,7.500000000000057
2022-10-04T01:18:32.867Z,7.500000000000057
2022-10-04T01:19:32.856Z,7.500000000000057
2022-10-04T01:20:33.117Z,7.500000000000057
2022-10-04T01:21:32.860Z,7.500000000000057
2022-10-04T01:22:32.819Z,7.500000000000057
2022-10-04T01:23:32.856Z,7.500000000000057
2022-10-04T01:24:32.935Z,7.388888888888914
2022-10-04T01:25:32.980Z,7.388888888888914
2022-10-04T01:26:32.823Z,7.388888888888914
2022-10-04T01:27:32.864Z,7.388888888888914
2022-10-04T01:28:32.936Z,7.388888888888914
2022-10-04T01:29:32.844Z,7.388888888888914
2022-10-04T01:30:32.837Z,7.388888888888914
2022-10-04T01:31:32.884Z,7.388888888888914
2022-10-04T01:32:32.827Z,7.388888888888914
2022-10-04T01:33:32.859Z,7.388888888888914
2022-10-04T01:34:32.874Z,7.388888888888914
2022-10-04T01:35:32.851Z,7.388888888888914
2022-10-04T01:36:32.902Z,7.500000000000057
2022-10-04T01:37:32.810Z,7.500000000000057
2022-10-04T01:38:32.843Z,7.500000000000057
2022-10-04T01:39:32.937Z,7.500000000000057
2022-10-04T01:40:33.027Z,7.500000000000057
2022-10-04T01:41:33.035Z,7.388888888888914
2022-10-04T01:42:33.013Z,7.388888888888914
2022-10-04T01:43:32.981Z,7.388888888888914
2022-10-04T01:44:32.998Z,7.388888888888914
2022-10-04T01:45:32.965Z,7.388888888888914
2022-10-04T01:46:33.180Z,7.388888888888914
2022-10-04T01:47:33.053Z,7.388888888888914
2022-10-04T01:48:32.965Z,7.388888888888914
2022-10-04T01:49:32.835Z,7.388888888888914
2022-10-04T01:50:32.847Z,7.277777777777828
2022-10-04T01:51:32.855Z,7.277777777777828
2022-10-04T01:52:32.949Z,7.277777777777828
2022-10-04T01:53:32.851Z,7.277777777777828
2022-10-04T01:54:33.037Z,7.277777777777828
2022-10-04T01:55:32.860Z,7.222222222222285
2022-10-04T01:56:32.945Z,7.222222222222285
2022-10-04T01:57:32.903Z,7.222222222222285
2022-10-04T01:58:32.857Z,7.222222222222285
2022-10-04T01:59:32.851Z,7.222222222222285
2022-10-04T02:00:32.832Z,7.222222222222285
2022-10-04T02:01:32.865Z,7.222222222222285
2022-10-04T02:02:33.105Z,7.222222222222285
2022-10-04T02:03:32.907Z,7.111111111111143
2022-10-04T02:04:32.895Z,7.111111111111143
2022-10-04T02:05:32.834Z,7.111111111111143
2022-10-04T02:06:32.890Z,7.111111111111143
2022-10-04T02:07:32.861Z,7.111111111111143
2022-10-04T02:08:32.930Z,7.111111111111143
2022-10-04T02:09:32.832Z,7.111111111111143
2022-10-04T02:10:32.834Z,7.111111111111143
2022-10-04T02:11:32.848Z,7.111111111111143
2022-10-04T02:12:32.863Z,7.111111111111143
2022-10-04T02:13:32.826Z,7.000000000000057
2022-10-04T02:14:32.867Z,7.000000000000057
2022-10-04T02:15:32.873Z,7.000000000000057
2022-10-04T02:16:32.920Z,7.000000000000057
2022-10-04T02:17:32.823Z,7.000000000000057
2022-10-04T02:18:32.847Z,7.000000000000057
2022-10-04T02:19:32.844Z,7.000000000000057
2022-10-04T02:20:32.901Z,6.888888888888914
2022-10-04T02:21:32.823Z,6.888888888888914
2022-10-04T02:22:33.129Z,6.888888888888914
2022-10-04T02:23:32.841Z,6.888888888888914
2022-10-04T02:24:32.840Z,6.888888888888914
2022-10-04T02:25:32.803Z,6.888888888888914
2022-10-04T02:26:32.925Z,6.888888888888914
2022-10-04T02:27:32.830Z,6.888888888888914
2022-10-04T02:28:32.911Z,6.777777777777828
2022-10-04T02:29:32.855Z,6.777777777777828
2022-10-04T02:30:32.855Z,6.777777777777828
2022-10-04T02:31:32.980Z,6.777777777777828
2022-10-04T02:32:32.855Z,6.777777777777828
2022-10-04T02:33:32.848Z,6.777777777777828
2022-10-04T02:34:32.825Z,6.777777777777828
2022-10-04T02:35:32.850Z,6.777777777777828
2022-10-04T02:36:32.837Z,6.777777777777828
2022-10-04T02:37:32.851Z,6.777777777777828
2022-10-04T02:38:32.865Z,6.722222222222285
2022-10-04T02:39:32.870Z,6.722222222222285
2022-10-04T02:40:32.881Z,6.722222222222285
2022-10-04T02:41:32.846Z,6.722222222222285
2022-10-04T02:42:32.818Z,6.722222222222285
2022-10-04T02:43:32.829Z,6.722222222222285
2022-10-04T02:44:32.834Z,6.722222222222285
2022-10-04T02:45:32.853Z,6.722222222222285
2022-10-04T02:46:32.868Z,6.611111111111143
2022-10-04T02:47:32.894Z,6.611111111111143
2022-10-04T02:48:32.854Z,6.611111111111143
2022-10-04T02:49:32.860Z,6.611111111111143
2022-10-04T02:50:32.806Z,6.611111111111143
2022-10-04T02:51:32.837Z,6.611111111111143
2022-10-04T02:52:32.877Z,6.611111111111143
2022-10-04T02:53:33.004Z,6.611111111111143
2022-10-04T02:54:32.837Z,6.611111111111143
2022-10-04T02:55:32.835Z,6.611111111111143
2022-10-04T02:56:32.850Z,6.611111111111143
2022-10-04T02:57:32.815Z,6.611111111111143
2022-10-04T02:58:32.840Z,6.611111111111143
2022-10-04T02:59:35.250Z,6.611111111111143
2022-10-04T03:00:32.853Z,6.611111111111143
2022-10-04T03:01:32.835Z,6.611111111111143
2022-10-04T03:02:33.052Z,6.500000000000057
2022-10-04T03:03:32.844Z,6.500000000000057
2022-10-04T03:04:32.845Z,6.500000000000057
2022-10-04T03:05:32.862Z,6.500000000000057
2022-10-04T03:06:32.831Z,6.500000000000057
2022-10-04T03:07:32.940Z,6.500000000000057
2022-10-04T03:08:32.857Z,6.500000000000057
2022-10-04T03:09:32.884Z,6.500000000000057
2022-10-04T03:10:32.850Z,6.500000000000057
2022-10-04T03:11:33.025Z,6.500000000000057
2022-10-04T03:12:32.939Z,6.500000000000057
2022-10-04T03:13:32.930Z,6.388888888888914
2022-10-04T03:14:32.874Z,6.388888888888914
2022-10-04T03:15:32.983Z,6.388888888888914
2022-10-04T03:16:33.017Z,6.388888888888914
2022-10-04T03:17:33.057Z,6.388888888888914
2022-10-04T03:18:32.899Z,6.388888888888914
2022-10-04T03:19:32.958Z,6.388888888888914
2022-10-04T03:20:32.967Z,6.388888888888914
2022-10-04T03:21:32.950Z,6.388888888888914
2022-10-04T03:22:32.973Z,6.388888888888914
2022-10-04T03:23:32.919Z,6.388888888888914
2022-10-04T03:24:32.955Z,6.388888888888914
2022-10-04T03:25:32.938Z,6.277777777777828
2022-10-04T03:26:32.943Z,6.277777777777828
2022-10-04T03:27:33.031Z,6.277777777777828
2022-10-04T03:28:33.035Z,6.277777777777828
2022-10-04T03:29:32.920Z,6.277777777777828
2022-10-04T03:30:32.943Z,6.277777777777828
2022-10-04T03:31:33.230Z,6.277777777777828
2022-10-04T03:32:32.954Z,6.277777777777828
2022-10-04T03:33:32.776Z,6.277777777777828
2022-10-04T03:34:32.902Z,6.277777777777828
2022-10-04T03:35:32.826Z,6.277777777777828
2022-10-04T03:36:32.827Z,6.277777777777828
2022-10-04T03:37:32.810Z,6.222222222222285
2022-10-04T03:38:32.825Z,6.222222222222285
2022-10-04T03:39:32.812Z,6.222222222222285
2022-10-04T03:40:32.978Z,6.222222222222285
2022-10-04T03:41:32.799Z,6.222222222222285
2022-10-04T03:42:32.990Z,6.222222222222285
2022-10-04T03:43:32.936Z,6.222222222222285
2022-10-04T03:44:32.831Z,6.222222222222285
2022-10-04T03:45:32.880Z,6.222222222222285
2022-10-04T03:46:32.816Z,6.222222222222285
2022-10-04T03:47:32.841Z,6.222222222222285
2022-10-04T03:48:32.855Z,6.222222222222285
2022-10-04T03:49:32.876Z,6.111111111111143
2022-10-04T03:50:32.849Z,6.111111111111143
2022-10-04T03:51:32.846Z,6.111111111111143
2022-10-04T03:52:32.963Z,6.111111111111143
2022-10-04T03:53:32.804Z,6.111111111111143
2022-10-04T03:54:32.843Z,6.111111111111143
2022-10-04T03:55:32.846Z,6.111111111111143
2022-10-04T03:56:32.840Z,6.111111111111143
2022-10-04T03:57:32.819Z,6.111111111111143
2022-10-04T03:58:32.841Z,6.111111111111143
2022-10-04T03:59:32.825Z,6.111111111111143
2022-10-04T04:00:32.828Z,6.111111111111143
2022-10-04T04:01:32.916Z,6.111111111111143
2022-10-04T04:02:33.167Z,6.111111111111143
2022-10-04T04:03:32.821Z,6.111111111111143
2022-10-04T04:04:32.854Z,6.111111111111143
2022-10-04T04:05:32.820Z,6.111111111111143
2022-10-04T04:06:32.991Z,6.111111111111143
2022-10-04T04:07:32.849Z,6.111111111111143
2022-10-04T04:08:32.840Z,6.111111111111143
2022-10-04T04:09:32.802Z,6.111111111111143
2022-10-04T04:10:32.836Z,6.111111111111143
2022-10-04T04:11:32.808Z,6.000000000000057
2022-10-04T04:12:32.954Z,6.000000000000057
2022-10-04T04:13:32.832Z,6.000000000000057
2022-10-04T04:14:32.837Z,6.000000000000057
2022-10-04T04:15:32.845Z,6.000000000000057
2022-10-04T04:16:32.897Z,6.000000000000057
2022-10-04T04:17:32.791Z,6.000000000000057
2022-10-04T04:18:32.831Z,6.000000000000057
2022-10-04T04:19:32.830Z,6.000000000000057
2022-10-04T04:20:32.862Z,6.000000000000057
2022-10-04T04:21:32.816Z,6.000000000000057
2022-10-04T04:22:33.101Z,6.000000000000057
2022-10-04T04:23:32.905Z,6.000000000000057
2022-10-04T04:24:32.861Z,6.000000000000057
2022-10-04T04:25:33.048Z,6.000000000000057
2022-10-04T04:26:32.951Z,6.000000000000057
2022-10-04T04:27:32.854Z,6.000000000000057
2022-10-04T04:28:32.941Z,6.000000000000057
2022-10-04T04:29:32.825Z,6.000000000000057
2022-10-04T04:30:32.868Z,6.000000000000057
2022-10-04T04:31:32.881Z,5.888888888888971
2022-10-04T04:32:32.837Z,5.888888888888971
2022-10-04T04:33:32.789Z,5.888888888888971
2022-10-04T04:34:32.822Z,5.888888888888971
2022-10-04T04:35:32.830Z,5.888888888888971
2022-10-04T04:36:32.855Z,5.888888888888971
2022-10-04T04:37:32.810Z,5.888888888888971
2022-10-04T04:38:32.878Z,5.888888888888971
2022-10-04T04:39:32.844Z,5.888888888888971
2022-10-04T04:40:32.849Z,5.888888888888971
2022-10-04T04:41:32.832Z,5.888888888888971
2022-10-04T04:42:33.468Z,5.888888888888971
2022-10-04T04:43:32.876Z,5.888888888888971
2022-10-04T04:44:32.819Z,5.888888888888971
2022-10-04T04:45:32.864Z,5.888888888888971
2022-10-04T04:46:32.903Z,5.888888888888971
2022-10-04T04:47:32.868Z,5.888888888888971
2022-10-04T04:48:32.833Z,5.888888888888971
2022-10-04T04:49:32.818Z,5.888888888888971
2022-10-04T04:50:32.824Z,5.888888888888971
2022-10-04T04:51:32.847Z,5.888888888888971
2022-10-04T04:52:32.832Z,5.777777777777828
2022-10-04T04:53:32.802Z,5.777777777777828
2022-10-04T04:54:32.819Z,5.777777777777828
2022-10-04T04:55:49.972Z,5.777777777777828
2022-10-04T04:56:32.940Z,5.777777777777828
2022-10-04T04:57:32.806Z,5.777777777777828
2022-10-04T04:58:32.831Z,5.777777777777828
2022-10-04T04:59:32.843Z,5.777777777777828
2022-10-04T05:00:32.870Z,5.777777777777828
2022-10-04T05:01:32.844Z,5.777777777777828
2022-10-04T05:02:33.002Z,5.777777777777828
2022-10-04T05:03:32.840Z,5.777777777777828
2022-10-04T05:04:32.877Z,5.777777777777828
2022-10-04T05:05:32.826Z,5.777777777777828
2022-10-04T05:06:32.851Z,5.777777777777828
2022-10-04T05:07:32.854Z,5.777777777777828
2022-10-04T05:08:35.976Z,5.777777777777828
2022-10-04T05:09:32.820Z,5.777777777777828
2022-10-04T05:10:32.831Z,5.777777777777828
2022-10-04T05:11:32.856Z,5.777777777777828
2022-10-04T05:12:32.838Z,5.777777777777828
2022-10-04T05:13:32.828Z,5.777777777777828
2022-10-04T05:14:32.823Z,5.777777777777828
2022-10-04T05:15:32.860Z,5.777777777777828
2022-10-04T05:16:32.900Z,5.777777777777828
2022-10-04T05:17:32.941Z,5.777777777777828
2022-10-04T05:18:32.820Z,5.777777777777828
2022-10-04T05:19:32.817Z,5.777777777777828
2022-10-04T05:20:32.818Z,5.777777777777828
2022-10-04T05:21:32.826Z,5.777777777777828
2022-10-04T05:22:32.854Z,5.777777777777828
2022-10-04T05:23:32.856Z,5.777777777777828
2022-10-04T05:24:32.816Z,5.777777777777828
2022-10-04T05:25:32.780Z,5.777777777777828
2022-10-04T05:26:32.839Z,5.777777777777828
2022-10-04T05:27:32.835Z,5.777777777777828
2022-10-04T05:28:32.879Z,5.777777777777828
2022-10-04T05:29:32.817Z,5.777777777777828
2022-10-04T05:30:32.818Z,5.777777777777828
2022-10-04T05:31:32.839Z,5.777777777777828
2022-10-04T05:32:32.930Z,5.777777777777828
2022-10-04T05:33:33.978Z,5.777777777777828
2022-10-04T05:34:32.824Z,5.777777777777828
2022-10-04T05:35:32.833Z,5.777777777777828
2022-10-04T05:36:32.889Z,5.888888888888971
2022-10-04T05:37:32.811Z,5.888888888888971
2022-10-04T05:38:32.841Z,6.000000000000057
2022-10-04T05:39:32.845Z,6.111111111111143
2022-10-04T05:40:32.849Z,6.222222222222285
2022-10-04T05:41:33.637Z,6.277777777777828
2022-10-04T05:42:32.814Z,6.388888888888914
2022-10-04T05:43:32.849Z,6.500000000000057
2022-10-04T05:44:32.853Z,6.611111111111143
2022-10-04T05:45:32.916Z,6.722222222222285
2022-10-04T05:46:32.839Z,6.722222222222285
2022-10-04T05:47:32.831Z,6.777777777777828
2022-10-04T05:48:32.943Z,6.722222222222285
2022-10-04T05:49:32.822Z,6.722222222222285
2022-10-04T05:50:32.808Z,6.611111111111143
2022-10-04T05:51:32.796Z,6.611111111111143
2022-10-04T05:52:32.967Z,6.611111111111143
2022-10-04T05:53:32.790Z,6.611111111111143
2022-10-04T05:54:32.835Z,6.500000000000057
2022-10-04T05:55:32.880Z,6.500000000000057
2022-10-04T05:56:32.839Z,6.388888888888914
2022-10-04T05:57:32.807Z,6.388888888888914
2022-10-04T05:58:32.841Z,6.388888888888914
2022-10-04T05:59:32.860Z,6.388888888888914
2022-10-04T06:00:32.831Z,6.388888888888914
2022-10-04T06:01:32.923Z,6.388888888888914
2022-10-04T06:02:33.021Z,6.388888888888914
2022-10-04T06:03:32.837Z,6.388888888888914
2022-10-04T06:04:32.849Z,6.500000000000057
2022-10-04T06:05:32.810Z,6.500000000000057
2022-10-04T06:06:32.837Z,6.500000000000057
2022-10-04T06:07:32.838Z,6.500000000000057
2022-10-04T06:08:32.815Z,6.500000000000057
2022-10-04T06:09:32.783Z,6.500000000000057
2022-10-04T06:10:32.995Z,6.500000000000057
2022-10-04T06:11:32.837Z,6.611111111111143
2022-10-04T06:12:32.827Z,6.611111111111143
2022-10-04T06:13:32.808Z,6.611111111111143
2022-10-04T06:14:32.822Z,6.611111111111143
2022-10-04T06:15:32.806Z,6.611111111111143
2022-10-04T06:16:32.831Z,6.611111111111143
2022-10-04T06:17:32.795Z,6.611111111111143
2022-10-04T06:18:32.822Z,6.611111111111143
2022-10-04T06:19:32.814Z,6.611111111111143
2022-10-04T06:20:32.854Z,6.722222222222285
2022-10-04T06:21:32.934Z,6.722222222222285
2022-10-04T06:22:33.234Z,6.722222222222285
2022-10-04T06:23:32.830Z,6.722222222222285
2022-10-04T06:24:32.821Z,6.777777777777828
2022-10-04T06:25:32.796Z,6.777777777777828
2022-10-04T06:26:33.067Z,6.777777777777828
2022-10-04T06:27:32.820Z,6.777777777777828
2022-10-04T06:28:32.855Z,6.888888888888914
2022-10-04T06:29:32.790Z,6.888888888888914
2022-10-04T06:30:32.943Z,6.888888888888914
2022-10-04T06:31:32.829Z,6.888888888888914
2022-10-04T06:32:32.947Z,7.000000000000057
2022-10-04T06:33:32.811Z,7.000000000000057
2022-10-04T06:34:32.838Z,7.000000000000057
2022-10-04T06:35:32.812Z,7.000000000000057
2022-10-04T06:36:32.818Z,7.000000000000057
2022-10-04T06:37:33.030Z,7.000000000000057
2022-10-04T06:38:32.838Z,7.000000000000057
2022-10-04T06:39:32.783Z,7.111111111111143
2022-10-04T06:40:32.814Z,7.111111111111143
2022-10-04T06:41:32.781Z,7.111111111111143
2022-10-04T06:42:32.987Z,7.111111111111143
2022-10-04T06:43:32.856Z,7.222222222222285
2022-10-04T06:44:32.819Z,7.222222222222285
2022-10-04T06:45:32.799Z,7.222222222222285
2022-10-04T06:46:32.876Z,7.222222222222285
2022-10-04T06:47:33.092Z,7.277777777777828
2022-10-04T06:48:32.815Z,7.277777777777828
2022-10-04T06:49:32.775Z,7.277777777777828
2022-10-04T06:50:32.819Z,7.388888888888914
2022-10-04T06:51:32.818Z,7.388888888888914
2022-10-04T06:52:33.179Z,7.388888888888914
2022-10-04T06:53:32.880Z,7.388888888888914
2022-10-04T06:54:32.929Z,7.388888888888914
2022-10-04T06:55:32.804Z,7.388888888888914
2022-10-04T06:56:32.799Z,7.500000000000057
2022-10-04T06:57:32.837Z,7.500000000000057
2022-10-04T06:58:33.276Z,7.500000000000057
2022-10-04T06:59:32.823Z,7.500000000000057
2022-10-04T07:00:32.809Z,7.611111111111143
2022-10-04T07:01:32.852Z,7.611111111111143
2022-10-04T07:02:33.015Z,7.611111111111143
2022-10-04T07:03:32.835Z,7.611111111111143
2022-10-04T07:04:55.764Z,7.7222222222222285
2022-10-04T07:05:32.875Z,7.7222222222222285
2022-10-04T07:06:32.867Z,7.777777777777828
2022-10-04T07:07:32.850Z,7.888888888888914
2022-10-04T07:08:32.794Z,7.888888888888914
2022-10-04T07:09:32.832Z,8.111111111111143
2022-10-04T07:10:32.821Z,8.111111111111143
2022-10-04T07:11:32.832Z,8.222222222222285
2022-10-04T07:12:32.802Z,8.388888888888971
2022-10-04T07:13:32.825Z,8.388888888888971
2022-10-04T07:14:32.809Z,8.611111111111143
2022-10-04T07:15:32.861Z,8.611111111111143
2022-10-04T07:16:32.824Z,8.777777777777828
2022-10-04T07:17:32.821Z,8.777777777777828
2022-10-04T07:18:32.873Z,9.111111111111143
2022-10-04T07:19:32.834Z,9.222222222222285
2022-10-04T07:20:32.792Z,9.277777777777828
2022-10-04T07:21:32.806Z,9.500000000000057
2022-10-04T07:22:32.929Z,9.611111111111143
2022-10-04T07:23:32.830Z,9.722222222222285
2022-10-04T07:24:32.763Z,9.888888888888914
2022-10-04T07:25:32.836Z,9.888888888888914
2022-10-04T07:26:32.811Z,10.000000000000057
2022-10-04T07:27:32.815Z,10.111111111111143
2022-10-04T07:28:32.806Z,10.611111111111143
2022-10-04T07:29:32.816Z,10.611111111111143
2022-10-04T07:30:32.791Z,10.777777777777828
2022-10-04T07:31:32.828Z,10.888888888888971
2022-10-04T07:32:32.868Z,11.111111111111143
2022-10-04T07:33:32.859Z,11.111111111111143
2022-10-04T07:34:32.829Z,11.111111111111143
2022-10-04T07:35:32.821Z,11.000000000000057
2022-10-04T07:36:32.822Z,10.888888888888971
2022-10-04T07:37:32.808Z,10.777777777777828
2022-10-04T07:38:32.792Z,10.777777777777828
2022-10-04T07:39:32.840Z,10.777777777777828
2022-10-04T07:40:32.827Z,11.000000000000057
2022-10-04T07:41:32.885Z,11.000000000000057
2022-10-04T07:42:32.802Z,11.000000000000057
2022-10-04T07:43:32.825Z,11.222222222222285
2022-10-04T07:44:32.812Z,11.277777777777828
2022-10-04T07:45:32.866Z,11.388888888888971
2022-10-04T07:46:32.918Z,11.388888888888971
2022-10-04T07:47:32.825Z,11.500000000000057
2022-10-04T07:48:32.825Z,11.722222222222229
2022-10-04T07:49:32.801Z,11.888888888888971
2022-10-04T07:50:32.807Z,11.888888888888971
2022-10-04T07:51:32.890Z,11.777777777777828
2022-10-04T07:52:32.981Z,11.777777777777828
2022-10-04T07:53:32.783Z,12
2022-10-04T07:54:32.794Z,12.111111111111143
2022-10-04T07:55:32.796Z,12.222222222222285
2022-10-04T07:56:32.867Z,12.611111111111143
2022-10-04T07:57:32.828Z,12.611111111111143
2022-10-04T07:58:32.786Z,12.722222222222285
2022-10-04T07:59:32.820Z,12.611111111111143
2022-10-04T08:00:32.832Z,12.500000000000057
2022-10-04T08:01:32.969Z,12.500000000000057
2022-10-04T08:02:32.975Z,12.500000000000057
2022-10-04T08:03:32.916Z,12.500000000000057
2022-10-04T08:04:32.826Z,12.388888888888914
2022-10-04T08:05:32.811Z,12.222222222222285
2022-10-04T08:06:32.820Z,12.222222222222285
2022-10-04T08:07:32.851Z,12.222222222222285
2022-10-04T08:08:32.814Z,12.388888888888914
2022-10-04T08:09:33.053Z,12.388888888888914
2022-10-04T08:10:32.802Z,12.388888888888914
2022-10-04T08:11:32.827Z,12.611111111111143
2022-10-04T08:12:32.880Z,12.777777777777828
2022-10-04T08:13:32.825Z,12.777777777777828
2022-10-04T08:14:32.797Z,12.888888888888914
2022-10-04T08:15:32.870Z,12.888888888888914
2022-10-04T08:16:32.803Z,12.888888888888914
2022-10-04T08:17:32.873Z,12.888888888888914
2022-10-04T08:18:32.831Z,12.888888888888914
2022-10-04T08:19:32.802Z,13.000000000000057
2022-10-04T08:20:32.817Z,13.000000000000057
2022-10-04T08:21:33.033Z,13.000000000000057
2022-10-04T08:22:32.768Z,13.111111111111143
2022-10-04T08:23:32.792Z,13.111111111111143
2022-10-04T08:24:32.921Z,13.222222222222285
2022-10-04T08:25:32.820Z,13.222222222222285
2022-10-04T08:26:32.769Z,13.222222222222285
2022-10-04T08:27:32.817Z,13.222222222222285
2022-10-04T08:28:32.977Z,13.111111111111143
2022-10-04T08:29:32.806Z,13.111111111111143
2022-10-04T08:30:32.823Z,13.111111111111143
2022-10-04T08:31:32.932Z,13.111111111111143
2022-10-04T08:32:32.818Z,13.222222222222285
2022-10-04T08:33:32.818Z,13.500000000000057
2022-10-04T08:34:32.911Z,13.6111111111112
2022-10-04T08:35:32.849Z,13.722222222222285
2022-10-04T08:36:32.823Z,13.722222222222285
2022-10-04T08:37:32.784Z,13.722222222222285
2022-10-04T08:38:32.756Z,13.722222222222285
2022-10-04T08:39:34.534Z,13.777777777777828
2022-10-04T08:40:32.861Z,13.888888888888971
2022-10-04T08:41:32.823Z,14.1111111111112
2022-10-04T08:42:32.887Z,14.277777777777828
2022-10-04T08:43:32.789Z,14.5
2022-10-04T08:44:33.011Z,14.5
2022-10-04T08:45:32.813Z,14.388888888888971
2022-10-04T08:46:32.866Z,14.222222222222229
2022-10-04T08:47:32.791Z,14.000000000000057
2022-10-04T08:48:32.837Z,13.888888888888971
2022-10-04T08:49:32.792Z,13.6111111111112
2022-10-04T08:50:32.851Z,13.6111111111112
2022-10-04T08:51:32.780Z,13.6111111111112
2022-10-04T08:52:32.835Z,13.722222222222285
2022-10-04T08:53:32.843Z,13.6111111111112
2022-10-04T08:54:32.810Z,13.277777777777828
2022-10-04T08:55:32.801Z,13.277777777777828
2022-10-04T08:56:32.798Z,13.500000000000057
2022-10-04T08:57:32.814Z,13.500000000000057
2022-10-04T08:58:32.803Z,13.6111111111112
2022-10-04T08:59:32.782Z,13.777777777777828
2022-10-04T09:00:32.821Z,13.888888888888971
2022-10-04T09:01:33.108Z,13.888888888888971
2022-10-04T09:02:32.995Z,13.888888888888971
2022-10-04T09:03:32.823Z,14.000000000000057
2022-10-04T09:04:32.900Z,14.000000000000057
2022-10-04T09:05:32.823Z,14.000000000000057
2022-10-04T09:06:32.858Z,13.888888888888971
2022-10-04T09:07:32.781Z,13.888888888888971
2022-10-04T09:08:32.900Z,13.777777777777828
2022-10-04T09:09:32.875Z,13.500000000000057
2022-10-04T09:10:32.841Z,13.500000000000057
2022-10-04T09:11:32.785Z,13.777777777777828
2022-10-04T09:12:32.803Z,13.888888888888971
2022-10-04T09:13:32.813Z,13.888888888888971
2022-10-04T09:14:32.795Z,13.777777777777828
2022-10-04T09:15:32.806Z,13.722222222222285